Time;durP1;ratioP1;P1;durP2;ratioP2;P2;SDS_P1;SDS_P2;PMS_P1;PMS_P2;Temp;Humidity;BMP_temperature;BMP_pressure;BME280_temperature;BME280_humidity;BME280_pressure;Samples;Min_cycle;Max_cycle;Signal;HPM_P1;HPM_P2
2022/08/21 00:00:21;;;;;;;9.00;4.20;;;;;;;23.83;56.03;100013.95;106383;1271;25312;-74
2022/08/21 00:02:58;;;;;;;6.80;3.40;;;;;;;23.73;56.31;100010.84;106377;1271;22551;-77
2022/08/21 00:05:26;;;;;;;11.70;3.90;;;;;;;23.68;56.16;100013.70;106325;1271;24873;-78
2022/08/21 00:07:54;;;;;;;14.50;5.00;;;;;;;23.62;56.73;100012.86;106378;1271;22524;-82
2022/08/21 00:10:22;;;;;;;6.70;3.80;;;;;;;23.57;56.62;100010.50;106489;1271;23935;-77
2022/08/21 00:12:49;;;;;;;5.60;3.80;;;;;;;23.55;56.71;100015.29;106497;1271;23926;-77
2022/08/21 00:15:22;;;;;;;7.30;3.70;;;;;;;23.55;56.92;100021.08;106331;1271;23140;-76
2022/08/21 00:17:49;;;;;;;6.10;4.00;;;;;;;23.48;56.92;100018.26;106321;1271;22544;-78
2022/08/21 00:20:17;;;;;;;5.70;4.10;;;;;;;23.44;57.18;100023.79;106297;1271;22528;-80
2022/08/21 00:22:45;;;;;;;6.70;3.70;;;;;;;23.42;57.15;100021.20;105979;1274;24328;-78
2022/08/21 00:25:13;;;;;;;4.80;3.60;;;;;;;23.42;57.35;100024.48;105812;1275;22873;-80
2022/08/21 00:27:42;;;;;;;4.00;3.60;;;;;;;23.38;57.49;100022.55;106025;1275;22556;-76
2022/08/21 00:30:11;;;;;;;6.90;3.80;;;;;;;23.36;57.73;100014.63;106140;1274;22568;-76
2022/08/21 00:32:48;;;;;;;9.90;3.50;;;;;;;23.30;57.56;100016.13;105952;1274;22529;-79
2022/08/21 00:35:18;;;;;;;4.60;3.50;;;;;;;23.28;58.01;100009.79;105940;1275;25407;-77
2022/08/21 00:37:45;;;;;;;5.80;3.60;;;;;;;23.25;57.93;100007.41;106008;1274;22850;-75
2022/08/21 00:40:15;;;;;;;6.20;3.80;;;;;;;23.21;57.82;100003.95;106013;1271;23072;-75
2022/08/21 00:42:43;;;;;;;5.50;3.80;;;;;;;23.20;58.17;100000.98;106379;1271;22477;-79
2022/08/21 00:45:21;;;;;;;6.60;3.50;;;;;;;23.15;58.33;99992.33;106464;1271;23185;-78
2022/08/21 00:47:49;;;;;;;5.10;3.50;;;;;;;23.10;58.24;99997.48;106490;1271;22843;-79
2022/08/21 00:50:18;;;;;;;5.10;3.30;;;;;;;23.09;58.65;99997.23;106501;1271;25245;-76
2022/08/21 00:52:51;;;;;;;6.00;3.80;;;;;;;23.06;58.61;99995.40;106437;1269;25323;-78
2022/08/21 00:55:19;;;;;;;4.00;3.60;;;;;;;23.06;58.69;99995.94;106242;1271;22623;-77
2022/08/21 00:57:53;;;;;;;4.90;3.60;;;;;;;23.06;58.98;99993.46;106439;1268;22761;-75
2022/08/21 01:00:27;;;;;;;5.10;3.50;;;;;;;23.06;58.78;99987.90;106488;1270;24078;-77
2022/08/21 01:02:58;;;;;;;4.00;3.20;;;;;;;23.02;58.81;99987.61;106423;1271;24437;-80
2022/08/21 01:05:26;;;;;;;6.10;3.70;;;;;;;22.98;58.97;99990.39;106076;1274;22658;-73
2022/08/21 01:07:56;;;;;;;5.30;3.50;;;;;;;22.95;59.21;99989.54;106005;1274;22551;-79
2022/08/21 01:10:24;;;;;;;6.30;3.60;;;;;;;22.91;59.30;99985.83;106127;1274;22686;-76
2022/08/21 01:12:54;;;;;;;5.10;3.40;;;;;;;22.89;59.44;99983.83;105973;1274;24322;-80
2022/08/21 01:15:26;;;;;;;7.90;3.30;;;;;;;22.85;59.47;99977.97;106076;1274;24378;-74
2022/08/21 01:17:53;;;;;;;4.10;3.40;;;;;;;22.80;59.54;99975.59;106024;1274;25356;-77
2022/08/21 01:20:20;;;;;;;4.70;3.30;;;;;;;22.77;59.73;99976.01;106195;1274;25357;-77
2022/08/21 01:22:47;;;;;;;4.00;3.60;;;;;;;22.74;59.72;99973.14;106188;1274;24269;-78
2022/08/21 01:25:16;;;;;;;5.70;3.70;;;;;;;22.71;59.93;99971.92;106424;1271;22759;-79
2022/08/21 01:27:43;;;;;;;4.00;3.20;;;;;;;22.68;60.02;99971.54;106399;1268;22725;-77
2022/08/21 01:30:15;;;;;;;3.80;3.30;;;;;;;22.64;59.95;99971.61;106423;1271;24245;-77
2022/08/21 01:32:42;;;;;;;5.00;3.20;;;;;;;22.61;60.25;99972.91;106210;1271;22559;-78
2022/08/21 01:35:11;;;;;;;3.60;3.30;;;;;;;22.58;60.10;99972.55;106358;1271;22704;-81
2022/08/21 01:37:39;;;;;;;5.70;3.50;;;;;;;22.56;60.06;99969.27;106508;1271;24485;-75
2022/08/21 01:40:07;;;;;;;4.20;3.70;;;;;;;22.54;60.23;99965.63;106821;1271;25503;-78
2022/08/21 01:42:35;;;;;;;7.30;3.50;;;;;;;22.54;60.40;99963.16;106975;1271;23914;-77
2022/08/21 01:45:03;;;;;;;4.00;3.30;;;;;;;22.55;60.49;99961.45;107038;1271;22480;-75
2022/08/21 01:47:30;;;;;;;6.30;3.10;;;;;;;22.56;60.44;99962.09;107051;1271;22683;-77
2022/08/21 01:49:57;;;;;;;5.60;3.30;;;;;;;22.58;60.51;99961.59;106923;1271;25576;-77
2022/08/21 01:52:24;;;;;;;9.00;3.40;;;;;;;22.60;60.48;99955.42;106835;1271;22685;-77
2022/08/21 01:54:51;;;;;;;5.90;3.00;;;;;;;22.59;60.24;99950.05;106823;1271;22519;-77
2022/08/21 01:57:22;;;;;;;4.50;3.30;;;;;;;22.61;60.42;99951.90;106529;1271;25241;-77
2022/08/21 01:59:52;;;;;;;3.80;3.20;;;;;;;22.63;60.64;99956.45;106442;1271;25365;-78
2022/08/21 02:02:19;;;;;;;4.80;3.50;;;;;;;22.60;60.63;99949.27;106312;1271;22774;-78
2022/08/21 02:04:46;;;;;;;5.80;3.50;;;;;;;22.58;60.62;99948.16;106368;1271;25242;-77
2022/08/21 02:07:14;;;;;;;4.40;4.00;;;;;;;22.53;60.84;99946.68;106369;1271;23205;-77
2022/08/21 02:09:42;;;;;;;5.10;3.80;;;;;;;22.49;60.72;99946.38;105949;1275;22541;-76
2022/08/21 02:12:11;;;;;;;5.00;3.80;;;;;;;22.47;60.87;99948.70;105692;1276;22646;-74
2022/08/21 02:14:38;;;;;;;4.10;3.70;;;;;;;22.45;60.97;99948.31;105929;1276;22683;-77
2022/08/21 02:17:05;;;;;;;3.50;3.20;;;;;;;22.43;61.00;99948.97;105556;1279;22559;-75
2022/08/21 02:19:37;;;;;;;4.10;3.20;;;;;;;22.42;61.03;99944.16;105472;1281;22561;-79
2022/08/21 02:22:09;;;;;;;5.70;3.40;;;;;;;22.41;61.28;99941.38;105580;1279;24681;-79
2022/08/21 02:24:37;;;;;;;5.60;3.30;;;;;;;22.37;61.28;99936.09;105504;1279;24218;-77
2022/08/21 02:27:25;;;;;;;5.80;3.70;;;;;;;22.33;61.11;99933.43;105636;1274;22537;-78
2022/08/21 02:29:56;;;;;;;4.50;3.30;;;;;;;22.30;61.31;99930.25;105936;1274;25343;-75
2022/08/21 02:32:23;;;;;;;4.50;3.00;;;;;;;22.26;61.69;99929.63;105937;1274;22861;-77
2022/08/21 02:34:49;;;;;;;6.30;3.70;;;;;;;22.22;61.74;99925.17;106099;1271;25254;-77
2022/08/21 02:37:16;;;;;;;4.60;3.30;;;;;;;22.20;61.76;99925.70;106445;1268;25308;-75
2022/08/21 02:39:43;;;;;;;6.40;3.90;;;;;;;22.19;61.84;99926.13;106317;1271;25296;-76
2022/08/21 02:42:10;;;;;;;4.60;3.60;;;;;;;22.17;61.92;99927.88;106349;1271;22606;-76
2022/08/21 02:44:37;;;;;;;4.10;3.60;;;;;;;22.14;62.03;99928.91;106364;1271;22541;-78
2022/08/21 02:47:04;;;;;;;8.70;3.80;;;;;;;22.12;62.11;99927.98;106285;1271;24041;-78
2022/08/21 02:49:30;;;;;;;6.70;3.90;;;;;;;22.08;62.13;99925.25;106360;1271;25286;-77
2022/08/21 02:51:57;;;;;;;4.90;3.50;;;;;;;22.04;62.16;99920.30;106362;1268;24266;-76
2022/08/21 02:54:24;;;;;;;5.30;3.70;;;;;;;22.04;62.35;99915.27;106410;1271;22681;-78
2022/08/21 02:56:51;;;;;;;4.30;3.30;;;;;;;22.03;62.22;99918.02;106327;1271;22634;-79
2022/08/21 02:59:18;;;;;;;4.20;3.70;;;;;;;22.01;62.21;99912.04;106384;1270;25698;-77
2022/08/21 03:01:45;;;;;;;4.20;3.70;;;;;;;21.99;62.32;99906.23;106245;1271;25235;-78
2022/08/21 03:04:11;;;;;;;4.30;3.70;;;;;;;21.93;62.33;99899.09;106300;1271;22652;-78
2022/08/21 03:06:38;;;;;;;4.80;3.50;;;;;;;21.87;62.46;99895.52;106456;1270;25679;-78
2022/08/21 03:09:05;;;;;;;5.80;3.40;;;;;;;21.90;62.73;99899.66;106233;1271;24415;-78
2022/08/21 03:11:32;;;;;;;4.80;3.10;;;;;;;21.90;62.61;99899.83;106407;1271;22577;-78
2022/08/21 03:13:59;;;;;;;3.80;3.50;;;;;;;21.92;62.63;99904.70;106348;1269;24272;-77
2022/08/21 03:16:25;;;;;;;4.80;3.40;;;;;;;21.91;62.77;99903.14;106379;1271;22587;-79
2022/08/21 03:18:52;;;;;;;5.40;3.50;;;;;;;21.89;62.74;99902.20;106333;1271;24008;-74
2022/08/21 03:21:19;;;;;;;3.80;3.40;;;;;;;21.86;62.84;99901.16;106153;1271;22544;-76
2022/08/21 03:23:46;;;;;;;4.00;3.60;;;;;;;21.82;62.87;99900.84;106266;1271;22603;-77
2022/08/21 03:26:13;;;;;;;5.70;3.70;;;;;;;21.80;63.02;99897.77;106307;1271;22548;-78
2022/08/21 03:28:41;;;;;;;4.90;3.30;;;;;;;21.78;62.83;99904.70;106365;1271;22538;-77
2022/08/21 03:31:08;;;;;;;5.60;3.90;;;;;;;21.75;63.02;99905.73;106358;1271;24278;-77
2022/08/21 03:33:35;;;;;;;5.70;3.80;;;;;;;21.72;63.14;99909.67;106537;1269;23383;-77
2022/08/21 03:36:06;;;;;;;4.50;3.40;;;;;;;21.72;63.21;99910.07;106403;1269;22838;-80
2022/08/21 03:38:34;;;;;;;4.60;3.20;;;;;;;21.71;63.22;99908.52;106551;1271;26644;-75
2022/08/21 03:41:03;;;;;;;6.70;3.10;;;;;;;21.70;63.31;99902.66;106395;1270;23024;-79
2022/08/21 03:43:32;;;;;;;4.20;3.60;;;;;;;21.72;63.11;99902.55;106363;1271;22696;-82
2022/08/21 03:46:01;;;;;;;5.40;3.40;;;;;;;21.70;63.41;99902.88;106510;1271;25292;-78
2022/08/21 03:48:29;;;;;;;3.70;3.00;;;;;;;21.68;63.43;99905.30;106377;1270;22698;-79
2022/08/21 03:50:56;;;;;;;4.00;3.70;;;;;;;21.69;63.53;99902.55;106083;1271;25360;-78
2022/08/21 03:53:23;;;;;;;4.90;3.40;;;;;;;21.70;63.40;99906.27;106321;1271;23916;-77
2022/08/21 03:55:52;;;;;;;3.70;3.40;;;;;;;21.67;63.58;99905.70;106409;1271;24224;-77
2022/08/21 03:58:22;;;;;;;8.30;3.60;;;;;;;21.65;63.45;99913.01;106584;1271;23997;-80
2022/08/21 04:00:52;;;;;;;7.50;3.40;;;;;;;21.63;63.54;99916.38;106281;1271;22709;-80
2022/08/21 04:03:19;;;;;;;3.90;3.50;;;;;;;21.63;63.70;99916.73;106541;1271;22567;-76
2022/08/21 04:05:46;;;;;;;6.80;3.50;;;;;;;21.62;63.76;99914.84;106589;1271;22532;-78
2022/08/21 04:08:17;;;;;;;4.80;3.10;;;;;;;21.59;63.76;99911.63;106612;1271;22731;-77
2022/08/21 04:10:46;;;;;;;5.30;3.40;;;;;;;21.65;63.72;99917.13;106766;1267;24263;-73
2022/08/21 04:13:14;;;;;;;5.30;4.00;;;;;;;21.68;63.66;99920.38;106382;1270;22714;-79
2022/08/21 04:15:41;;;;;;;5.30;4.10;;;;;;;21.69;63.69;99920.48;106310;1271;22544;-81
2022/08/21 04:18:08;;;;;;;4.20;3.20;;;;;;;21.70;63.64;99919.50;106318;1271;25515;-75
2022/08/21 04:20:35;;;;;;;5.30;3.60;;;;;;;21.69;63.88;99915.27;106410;1268;22617;-77
2022/08/21 04:23:02;;;;;;;4.20;3.60;;;;;;;21.72;63.75;99920.82;106346;1271;24217;-77
2022/08/21 04:25:29;;;;;;;7.50;3.80;;;;;;;21.73;63.83;99917.34;106429;1271;23954;-78
2022/08/21 04:27:57;;;;;;;4.90;3.30;;;;;;;21.71;63.68;99915.30;106381;1271;22628;-79
2022/08/21 04:30:25;;;;;;;4.50;4.00;;;;;;;21.71;63.69;99919.59;106375;1271;25207;-77
2022/08/21 04:32:56;;;;;;;4.10;3.70;;;;;;;21.69;63.67;99920.29;106303;1271;22693;-77
2022/08/21 04:35:25;;;;;;;4.50;3.90;;;;;;;21.65;63.95;99912.09;106394;1269;25256;-77
2022/08/21 04:37:53;;;;;;;4.80;3.40;;;;;;;21.62;63.85;99913.38;106304;1269;22541;-76
2022/08/21 04:40:21;;;;;;;4.60;3.80;;;;;;;21.62;64.19;99908.70;106314;1271;23369;-78
2022/08/21 04:42:51;;;;;;;4.00;3.40;;;;;;;21.65;64.26;99908.33;106298;1271;22564;-78
2022/08/21 04:45:23;;;;;;;4.80;3.80;;;;;;;21.68;64.00;99905.86;106393;1267;22525;-78
2022/08/21 04:47:56;;;;;;;8.80;4.10;;;;;;;21.68;64.07;99902.95;106310;1271;24223;-77
2022/08/21 04:50:29;;;;;;;3.90;3.20;;;;;;;21.72;64.18;99898.42;106200;1271;24252;-76
2022/08/21 04:53:06;;;;;;;4.70;3.40;;;;;;;21.76;64.12;99897.66;106298;1271;22540;-76
2022/08/21 04:55:33;;;;;;;3.90;3.20;;;;;;;21.80;64.03;99898.86;106245;1271;24284;-76
2022/08/21 04:58:01;;;;;;;4.00;3.60;;;;;;;21.84;63.93;99899.50;106240;1271;22525;-77
2022/08/21 05:00:29;;;;;;;6.30;3.40;;;;;;;21.86;63.69;99897.58;106458;1271;22557;-76
2022/08/21 05:02:58;;;;;;;3.40;3.10;;;;;;;21.87;63.68;99900.55;106317;1271;25367;-76
2022/08/21 05:05:29;;;;;;;4.60;3.00;;;;;;;21.91;63.65;99899.94;106420;1271;25384;-77
2022/08/21 05:07:59;;;;;;;4.30;3.20;;;;;;;21.95;63.68;99905.05;106298;1271;23964;-76
2022/08/21 05:10:26;;;;;;;6.30;3.70;;;;;;;22.01;63.59;99907.35;106406;1271;22581;-78
2022/08/21 05:12:54;;;;;;;3.70;3.10;;;;;;;22.07;63.47;99904.30;106277;1271;22545;-78
2022/08/21 05:15:21;;;;;;;4.20;3.60;;;;;;;22.14;63.19;99907.42;106382;1271;22544;-76
2022/08/21 05:17:50;;;;;;;5.70;4.00;;;;;;;22.16;63.20;99907.84;106735;1271;25886;-77
2022/08/21 05:20:27;;;;;;;4.50;3.30;;;;;;;22.20;63.19;99913.46;107220;1271;22618;-78
2022/08/21 05:22:55;;;;;;;5.30;3.60;;;;;;;22.26;63.01;99914.71;106845;1271;24335;-78
2022/08/21 05:25:22;;;;;;;3.80;3.40;;;;;;;22.32;63.03;99915.61;106796;1271;23025;-77
2022/08/21 05:27:50;;;;;;;5.30;3.00;;;;;;;22.35;62.98;99912.89;106937;1271;25213;-78
2022/08/21 05:30:19;;;;;;;4.70;3.60;;;;;;;22.39;63.09;99911.39;107132;1271;25301;-77
2022/08/21 05:32:47;;;;;;;3.70;3.30;;;;;;;22.43;62.82;99910.38;107182;1269;22473;-77
2022/08/21 05:35:14;;;;;;;7.20;3.90;;;;;;;22.48;62.84;99908.83;107127;1271;22643;-77
2022/08/21 05:37:41;;;;;;;5.40;3.60;;;;;;;22.54;62.82;99903.06;107140;1269;22690;-75
2022/08/21 05:40:09;;;;;;;4.80;3.30;;;;;;;22.57;62.76;99899.23;106944;1271;22732;-76
2022/08/21 05:42:53;;;;;;;5.90;3.40;;;;;;;22.64;62.85;99899.55;107086;1269;25235;-77
2022/08/21 05:45:28;;;;;;;4.30;3.40;;;;;;;22.72;62.69;99897.15;106978;1271;25242;-80
2022/08/21 05:48:19;;;;;;;3.40;3.10;;;;;;;22.80;62.47;99895.41;106503;1269;25218;-77
2022/08/21 05:50:47;;;;;;;4.60;3.50;;;;;;;22.85;62.16;99898.82;106548;1269;22681;-78
2022/08/21 05:53:16;;;;;;;4.40;3.40;;;;;;;22.88;62.03;99893.96;106542;1271;22551;-79
2022/08/21 05:55:44;;;;;;;5.80;3.20;;;;;;;22.92;62.04;99903.94;106569;1268;25244;-77
2022/08/21 05:58:19;;;;;;;3.60;3.30;;;;;;;22.98;62.02;99911.40;106267;1271;25242;-78
2022/08/21 06:00:49;;;;;;;9.30;3.70;;;;;;;23.01;61.71;99917.44;106295;1270;22527;-76
2022/08/21 06:03:19;;;;;;;4.20;3.30;;;;;;;23.01;61.76;99919.27;106172;1271;22524;-77
2022/08/21 06:05:47;;;;;;;3.70;3.40;;;;;;;23.03;61.77;99915.39;106362;1271;22687;-77
2022/08/21 06:08:16;;;;;;;7.10;4.00;;;;;;;23.07;61.85;99920.48;106357;1271;22524;-76
2022/08/21 06:10:44;;;;;;;5.20;3.50;;;;;;;23.12;61.71;99919.59;106433;1271;22764;-78
2022/08/21 06:13:11;;;;;;;3.90;3.50;;;;;;;23.12;61.25;99921.05;106364;1269;22675;-77
2022/08/21 06:15:39;;;;;;;5.90;3.80;;;;;;;23.11;61.62;99920.73;106362;1268;22695;-76
2022/08/21 06:18:06;;;;;;;4.00;3.20;;;;;;;23.12;61.55;99923.36;106314;1271;22526;-77
2022/08/21 06:20:34;;;;;;;6.40;4.10;;;;;;;23.12;61.41;99921.59;106491;1271;22870;-76
2022/08/21 06:23:01;;;;;;;5.40;3.50;;;;;;;23.14;61.37;99921.80;106452;1268;24227;-75
2022/08/21 06:25:29;;;;;;;5.10;4.10;;;;;;;23.18;61.45;99925.30;106430;1269;25542;-76
2022/08/21 06:28:07;;;;;;;5.10;3.80;;;;;;;23.21;61.37;99924.16;106340;1269;22622;-76
2022/08/21 06:30:35;;;;;;;6.00;4.10;;;;;;;23.23;61.10;99918.49;106339;1271;24387;-78
2022/08/21 06:33:03;;;;;;;7.00;3.70;;;;;;;23.25;61.25;99926.05;106367;1271;22606;-78
2022/08/21 06:35:30;;;;;;;4.20;3.80;;;;;;;23.27;61.29;99925.40;106223;1271;23377;-76
2022/08/21 06:37:57;;;;;;;6.10;3.90;;;;;;;23.26;61.22;99921.73;106300;1271;22524;-79
2022/08/21 06:40:26;;;;;;;5.30;3.50;;;;;;;23.31;61.34;99928.59;106325;1271;23152;-77
2022/08/21 06:42:57;;;;;;;4.80;3.80;;;;;;;23.32;61.27;99924.34;106406;1271;25219;-77
2022/08/21 06:45:27;;;;;;;4.40;3.60;;;;;;;23.35;61.25;99923.95;106392;1269;22531;-82
2022/08/21 06:47:59;;;;;;;7.70;4.10;;;;;;;23.40;61.36;99928.31;106291;1271;22592;-78
2022/08/21 06:50:25;;;;;;;4.30;3.90;;;;;;;23.42;61.24;99928.36;106089;1271;22550;-78
2022/08/21 06:53:09;;;;;;;4.40;4.00;;;;;;;23.42;61.09;99929.22;106304;1271;22539;-77
2022/08/21 06:55:37;;;;;;;5.90;3.80;;;;;;;23.43;61.08;99932.39;106420;1268;22753;-77
2022/08/21 06:58:04;;;;;;;6.50;4.20;;;;;;;23.46;61.12;99931.27;106205;1271;25899;-79
2022/08/21 07:00:32;;;;;;;5.90;4.10;;;;;;;23.51;61.29;99926.30;106262;1271;22645;-78
2022/08/21 07:02:59;;;;;;;6.10;3.80;;;;;;;23.57;61.25;99926.20;106258;1271;22690;-76
2022/08/21 07:05:28;;;;;;;4.60;3.90;;;;;;;23.60;60.81;99928.14;106197;1271;22656;-75
2022/08/21 07:07:56;;;;;;;4.60;3.40;;;;;;;23.65;60.87;99933.23;106364;1271;24480;-76
2022/08/21 07:10:25;;;;;;;4.90;3.50;;;;;;;23.70;60.58;99934.81;106368;1271;22835;-76
2022/08/21 07:12:54;;;;;;;5.20;4.10;;;;;;;23.74;60.40;99936.85;106445;1271;22702;-76
2022/08/21 07:15:30;;;;;;;6.10;4.60;;;;;;;23.79;60.52;99933.67;106365;1271;22541;-75
2022/08/21 07:18:00;;;;;;;5.10;4.00;;;;;;;23.86;60.72;99929.19;106366;1270;22543;-75
2022/08/21 07:20:28;;;;;;;3.90;3.50;;;;;;;23.92;60.27;99928.25;106391;1271;23007;-77
2022/08/21 07:22:59;;;;;;;4.10;3.50;;;;;;;23.96;60.12;99923.42;106241;1271;22567;-76
2022/08/21 07:25:26;;;;;;;5.00;4.40;;;;;;;24.00;60.32;99921.34;106233;1271;22614;-76
2022/08/21 07:27:53;;;;;;;4.00;3.40;;;;;;;24.00;59.99;99919.91;106495;1271;22591;-76
2022/08/21 07:30:21;;;;;;;4.60;4.20;;;;;;;24.06;60.19;99918.73;106433;1271;24237;-78
2022/08/21 07:32:49;;;;;;;4.30;3.90;;;;;;;24.14;59.92;99918.06;106373;1271;22721;-76
2022/08/21 07:35:17;;;;;;;4.70;4.00;;;;;;;24.18;59.65;99911.93;106364;1271;24362;-76
2022/08/21 07:37:45;;;;;;;5.10;3.60;;;;;;;24.26;59.52;99914.49;106241;1271;25238;-76
2022/08/21 07:40:14;;;;;;;4.90;4.40;;;;;;;24.32;59.43;99916.52;106245;1271;22903;-76
2022/08/21 07:42:47;;;;;;;5.10;4.10;;;;;;;24.37;59.19;99913.65;106183;1271;22511;-77
2022/08/21 07:45:14;;;;;;;4.40;3.90;;;;;;;24.42;59.16;99908.08;106362;1271;22607;-75
2022/08/21 07:47:41;;;;;;;4.10;3.60;;;;;;;24.51;59.37;99906.89;106440;1269;22619;-76
2022/08/21 07:50:11;;;;;;;7.70;4.60;;;;;;;24.58;59.22;99905.21;106400;1268;22926;-76
2022/08/21 07:52:39;;;;;;;4.30;3.90;;;;;;;24.66;59.22;99903.19;106468;1271;25268;-77
2022/08/21 07:55:12;;;;;;;6.20;4.00;;;;;;;24.73;59.15;99900.88;106265;1271;24214;-79
2022/08/21 07:57:39;;;;;;;5.50;3.90;;;;;;;24.81;58.80;99898.52;106138;1271;25637;-76
2022/08/21 08:00:13;;;;;;;5.10;3.80;;;;;;;24.88;58.63;99898.87;106396;1268;22538;-77
2022/08/21 08:02:43;;;;;;;5.50;4.00;;;;;;;24.95;58.33;99898.91;106308;1271;26567;-79
2022/08/21 08:05:11;;;;;;;4.40;3.50;;;;;;;25.02;58.11;99898.55;105881;1275;22769;-83
2022/08/21 08:07:39;;;;;;;4.00;3.60;;;;;;;25.08;58.15;99894.59;105840;1276;23087;-82
2022/08/21 08:10:07;;;;;;;4.00;3.50;;;;;;;25.17;57.95;99892.86;105761;1275;22620;-75
2022/08/21 08:12:39;;;;;;;7.10;4.10;;;;;;;25.27;57.61;99886.34;106039;1274;22548;-77
2022/08/21 08:15:09;;;;;;;5.60;4.10;;;;;;;25.37;57.76;99885.38;105730;1277;24326;-78
2022/08/21 08:17:38;;;;;;;7.40;4.10;;;;;;;25.47;57.71;99884.20;105965;1275;23717;-77
2022/08/21 08:20:07;;;;;;;4.20;3.50;;;;;;;25.57;57.30;99886.64;105870;1276;25497;-78
2022/08/21 08:22:35;;;;;;;5.90;3.80;;;;;;;25.69;57.14;99882.69;106027;1271;25414;-77
2022/08/21 08:25:04;;;;;;;5.20;4.00;;;;;;;25.81;56.87;99886.58;106057;1274;22677;-79
2022/08/21 08:27:36;;;;;;;3.90;3.60;;;;;;;25.89;56.46;99881.80;105922;1276;25183;-81
2022/08/21 08:30:05;;;;;;;6.10;4.80;;;;;;;25.98;56.14;99879.03;105707;1276;22859;-76
2022/08/21 08:32:33;;;;;;;5.60;4.10;;;;;;;26.07;55.98;99880.49;105917;1274;22540;-77
2022/08/21 08:35:00;;;;;;;5.80;3.60;;;;;;;26.17;56.03;99879.48;105801;1276;22556;-77
2022/08/21 08:37:29;;;;;;;5.30;3.70;;;;;;;26.29;55.83;99887.54;106034;1274;22561;-79
2022/08/21 08:40:00;;;;;;;5.10;3.10;;;;;;;26.40;55.45;99885.55;106097;1274;22520;-79
2022/08/21 08:42:35;;;;;;;3.80;3.40;;;;;;;26.52;55.19;99886.02;105873;1271;26631;-77
2022/08/21 08:45:13;;;;;;;5.50;3.80;;;;;;;26.65;54.65;99885.13;105834;1274;22532;-81
2022/08/21 08:47:48;;;;;;;5.40;4.10;;;;;;;26.72;54.50;99877.83;105937;1275;22874;-76
2022/08/21 08:50:38;;;;;;;4.20;3.50;;;;;;;26.81;54.17;99871.98;105991;1275;24215;-77
2022/08/21 08:53:11;;;;;;;4.50;4.00;;;;;;;26.91;53.69;99871.16;106078;1274;22960;-78
2022/08/21 08:55:41;;;;;;;4.90;4.00;;;;;;;27.01;53.69;99870.89;106071;1276;24772;-81
2022/08/21 08:58:23;;;;;;;6.10;3.50;;;;;;;27.15;54.05;99870.23;105676;1280;24268;-76
2022/08/21 09:00:53;;;;;;;4.20;3.60;;;;;;;27.30;53.59;99873.63;105680;1279;22529;-77
2022/08/21 09:03:23;;;;;;;3.80;3.10;;;;;;;27.45;53.35;99875.70;106020;1274;22799;-77
2022/08/21 09:06:00;;;;;;;4.50;3.50;;;;;;;27.56;52.48;99871.85;106198;1273;22657;-78
2022/08/21 09:08:40;;;;;;;5.90;3.00;;;;;;;27.70;52.29;99868.69;106155;1274;25326;-78
2022/08/21 09:11:17;;;;;;;3.20;2.90;;;;;;;27.75;51.83;99870.27;106258;1274;22595;-74
2022/08/21 09:14:04;;;;;;;4.60;3.40;;;;;;;27.89;51.70;99871.48;106548;1274;22547;-78
2022/08/21 09:16:46;;;;;;;3.40;2.90;;;;;;;28.04;51.23;99871.62;106717;1271;25293;-77
2022/08/21 09:19:22;;;;;;;3.50;3.20;;;;;;;28.22;50.77;99872.19;107215;1271;22537;-76
2022/08/21 09:22:05;;;;;;;6.70;3.00;;;;;;;28.37;49.98;99870.23;107331;1269;24713;-76
2022/08/21 09:25:07;;;;;;;4.00;3.10;;;;;;;28.54;49.96;99870.92;107436;1271;22552;-76
2022/08/21 09:27:36;;;;;;;5.60;2.80;;;;;;;28.77;49.62;99869.63;106863;1269;22548;-76
2022/08/21 09:30:06;;;;;;;3.30;3.10;;;;;;;28.88;48.80;99868.59;106882;1271;22548;-76
2022/08/21 09:32:35;;;;;;;5.00;2.90;;;;;;;28.86;48.89;99868.10;106497;1271;25310;-78
2022/08/21 09:35:09;;;;;;;3.10;2.80;;;;;;;28.73;48.43;99866.75;106451;1271;22541;-78
2022/08/21 09:37:52;;;;;;;3.80;2.50;;;;;;;28.59;48.76;99867.52;105955;1275;22531;-77
2022/08/21 09:40:37;;;;;;;3.30;3.00;;;;;;;28.49;49.07;99865.58;105766;1277;22547;-77
2022/08/21 09:43:13;;;;;;;3.70;3.00;;;;;;;28.38;48.97;99866.42;105969;1277;22693;-78
2022/08/21 09:45:41;;;;;;;4.20;3.20;;;;;;;28.38;48.87;99866.35;106031;1274;24225;-78
2022/08/21 09:48:20;;;;;;;3.60;2.80;;;;;;;28.51;48.59;99863.88;105827;1275;24048;-77
2022/08/21 09:50:48;;;;;;;3.30;2.80;;;;;;;28.75;47.99;99860.08;106057;1277;23134;-78
2022/08/21 09:53:19;;;;;;;3.80;2.60;;;;;;;28.97;47.59;99858.00;105980;1276;22608;-78
2022/08/21 09:58:41;;;;;;;3.00;2.70;;;;;;;29.51;47.73;99854.73;106271;1271;25621;-79
2022/08/21 10:01:15;;;;;;;4.50;2.50;;;;;;;29.71;46.86;99849.85;106372;1271;22557;-78
2022/08/21 10:03:43;;;;;;;2.90;2.40;;;;;;;29.89;46.20;99849.94;106361;1271;22551;-81
2022/08/21 10:06:20;;;;;;;2.60;2.40;;;;;;;30.02;46.12;99846.81;106271;1271;22551;-75
2022/08/21 10:08:48;;;;;;;2.60;2.30;;;;;;;30.19;45.40;99849.47;106578;1271;22520;-75
2022/08/21 10:11:17;;;;;;;3.60;2.80;;;;;;;30.36;45.34;99851.40;106193;1271;22567;-77
2022/08/21 10:14:03;;;;;;;3.50;2.50;;;;;;;30.36;44.96;99855.76;106228;1271;22834;-77
2022/08/21 10:16:52;;;;;;;2.90;2.60;;;;;;;30.18;44.61;99845.05;106337;1271;22897;-75
2022/08/21 10:19:38;;;;;;;4.30;2.40;;;;;;;30.01;44.85;99844.52;106430;1271;23948;-71
2022/08/21 10:22:08;;;;;;;7.30;3.10;;;;;;;29.86;44.99;99844.91;106522;1271;22787;-75
2022/08/21 10:24:42;;;;;;;5.50;2.60;;;;;;;29.74;45.16;99846.45;106406;1269;23912;-74
2022/08/21 10:27:15;;;;;;;2.90;2.40;;;;;;;29.57;44.97;99848.52;106334;1271;24203;-72
2022/08/21 10:29:58;;;;;;;5.00;2.60;;;;;;;29.45;45.24;99846.75;106447;1271;22540;-76
2022/08/21 10:32:24;;;;;;;3.10;2.80;;;;;;;29.34;45.43;99847.27;106375;1271;23719;-70
2022/08/21 10:35:18;;;;;;;2.90;2.60;;;;;;;29.24;45.46;99848.38;106529;1271;25247;-75
2022/08/21 10:38:05;;;;;;;3.70;2.70;;;;;;;29.14;45.82;99843.92;106437;1271;22854;-81
2022/08/21 10:41:10;;;;;;;6.20;3.00;;;;;;;28.97;46.11;99849.63;106526;1271;22560;-78
2022/08/21 10:43:38;;;;;;;3.00;2.70;;;;;;;28.81;45.85;99851.34;106883;1271;22582;-91
2022/08/21 10:46:29;;;;;;;5.20;2.50;;;;;;;28.72;46.11;99848.18;108139;1269;22933;-90
2022/08/21 10:49:19;;;;;;;3.00;2.50;;;;;;;28.61;46.55;99849.75;107225;1272;23960;-81
2022/08/21 10:51:56;;;;;;;2.90;2.50;;;;;;;28.51;46.64;99855.40;106710;1271;25501;-81
2022/08/21 10:54:37;;;;;;;3.80;2.60;;;;;;;28.45;46.75;99852.89;106518;1271;24282;-77
2022/08/21 10:57:14;;;;;;;5.50;2.60;;;;;;;28.38;47.15;99852.05;106622;1271;22481;-80
2022/08/21 11:00:06;;;;;;;2.90;2.70;;;;;;;28.31;47.07;99851.47;106533;1271;22547;-84
2022/08/21 11:02:41;;;;;;;4.80;2.90;;;;;;;28.23;47.24;99848.59;106315;1271;24843;-81
2022/08/21 11:05:39;;;;;;;4.70;2.80;;;;;;;28.18;47.49;99848.77;106578;1271;22563;-83
2022/08/21 11:08:13;;;;;;;4.90;2.60;;;;;;;28.17;47.63;99844.94;106548;1271;22540;-84
2022/08/21 11:10:53;;;;;;;9.40;2.90;;;;;;;28.17;47.52;99840.23;106339;1271;22693;-84
2022/08/21 11:13:35;;;;;;;2.90;2.60;;;;;;;28.22;47.11;99837.02;105469;1271;1375402;-86
2022/08/21 11:16:09;;;;;;;6.00;3.00;;;;;;;28.27;46.98;99834.77;106448;1271;22563;-84
2022/08/21 11:18:58;;;;;;;4.30;3.20;;;;;;;28.43;46.83;99833.15;106277;1271;22710;-86
2022/08/21 11:21:37;;;;;;;5.10;2.60;;;;;;;28.72;46.40;99826.98;106293;1271;22552;-83
2022/08/21 11:24:35;;;;;;;3.30;1.80;;;;;;;29.13;45.78;99823.88;106439;1271;22556;-84
2022/08/21 11:27:24;;;;;;;4.70;2.90;;;;;;;29.63;44.93;99821.48;106559;1271;24313;-82
2022/08/21 11:29:59;;;;;;;3.60;2.40;;;;;;;30.06;44.49;99816.89;106307;1271;22488;-81
2022/08/21 11:32:42;;;;;;;;;;;;;;;30.39;43.68;99825.20;106451;1271;22705;-85
2022/08/21 11:35:38;;;;;;;4.30;2.30;;;;;;;30.68;43.12;99822.08;106340;1269;22866;-87
2022/08/21 11:38:25;;;;;;;4.70;2.10;;;;;;;31.00;42.79;99822.26;106582;1271;22527;-79
2022/08/21 11:41:17;;;;;;;4.40;2.90;;;;;;;31.25;42.26;99825.25;106383;1271;25416;-83
2022/08/21 11:43:50;;;;;;;3.40;2.50;;;;;;;31.34;41.75;99821.02;106443;1271;22723;-83
2022/08/21 11:46:49;;;;;;;2.50;2.30;;;;;;;31.22;41.59;99824.84;106497;1271;25518;-80